Aérodrome :
LOGIN :

S'inscrire | Disclaimer

   EN    FR    IT 

 










Légende :    VFR   VFR Marginal   IFR   IFR Intensif   IFR Très Intensif
Visi : 
Plafond : 
>= 8 km
>= 3000ft
5 à 8 km
1000 à 3000 ft
1500m à 5 km
500 à 1000 ft
800 à 1500m
200 à 500 ft
< 800m
< 200 ft
Symboles :   Orages  Brouillard  Fortes neiges  Fortes précipitations  Vent > 20 kt
SIGMETs :   Divers  Orages  Givrage  Turbulence  Onde Orograph.  Cendres Volcan.







- Altitude de l'aérodrome : 616 ft
- Code IATA : PUF
- Voir les cartes d'approche


LFBP - Pau

DERNIER METAR :
  • 271300Z AUTO 27009KT 9999 FEW019 SCT025 BKN038 17/13 Q1017 TEMPO 3000 -RADZ OVC005

METARs EXPIRÉS :
  • 271230Z AUTO 26008KT 230V290 9999 FEW019 OVC041 17/13 Q1017 TEMPO 3000 -RADZ OVC005
  • 271200Z AUTO 27009KT 9999 FEW018 BKN041 OVC047 16/13 Q1017 TEMPO 3000 -RADZ OVC005
  • 271130Z AUTO 25008KT 230V290 9999 FEW018 SCT026 BKN039 16/13 Q1017 TEMPO 3000 -RADZ OVC005
  • 271100Z AUTO 25008KT 9999 SCT018 BKN028 OVC041 16/13 Q1017 TEMPO 2000 -RADZ OVC004

TAF TAF LFBP
Valide du 27 à 12h jusqu'au 28 à 12h UTC


271100Z 2712/2812 28008KT 9999 BKN014
PROB40
TEMPO 2712/2718 3000 -RADZ OVC005
BECMG 2720/2722 BKN030
PROB30
TEMPO 2721/2724 3000 -RA BKN010
TEMPO 2806/2812 4000 -SHRA BKN020TCU
Pas de NOTAMs connus pour ce terrain.



MET'MAP, la Météo Aéronautique d'un coup d'oeil ! - Copyright ORBIFLY Décembre 2007 - Disclaimer

ORBIFLY MET'MAP TEAM :

Programmation & Développement : Alexandra Zaïnal
Conception & Développement : Baudouin d'Aumeries
Co-Programmation & Développement : Marc-Olivier Méhu
Soutien technique & logistique : Manuel Goepfert

Contact : metmap@orbifly.com




SOURCES & CREDITS :

   NOAA